Laurence M. Gould — WCX7445 — position and weather

sailwx.info

Track history (hours):
 
Tides and Currents Weather Stations Pressure Air Temp Water Temp Dewpoint Dewpoint Depression Visibility Wind Speed Wind Dir Waves Ship Positions

Oceanographic research ship Laurence M. Gould (USA)

Detailed information on ship capabilities available from University of Delaware's Ocean Information Center.

Owner: Offshore Service Vessels LLC, Cut Off, LA. More information available from US FCC via Universal Licensing System and Coast Guard Vessel Documentation Center.

Last reported at 2019-Nov-20 09:00 UTC. Time now 2019-Nov-20 09:36 UTC.
Position S 64°42' W 064°00'.

Type: Ship. MMSI: 368138000.

Wind from 340 at 15 knots

Barometer 977.8 mb
Air temperature -1.7 ° C
Dewpoint -5.0 ° C

Date/timePositionNaut miles runAvg speedWind from/ knotsBaromVisibWave heightAir tempDewpointWater temp
2019-Nov-20 09:00S 64°42' W 064°00'0 0.0 340 / 15977.8 -1.7-5.0
2019-Nov-20 08:00S 64°42' W 064°00'0 0.0 350 / 24977.1 -2.1-4.6
2019-Nov-20 07:00S 64°42' W 064°00'0 0.0 010 / 29977.6 -3.1-6.2
2019-Nov-20 06:00S 64°42' W 064°00'0 0.0 020 / 32978.8 -3.9-6.8
2019-Nov-20 05:00S 64°42' W 064°00'0 0.0 030 / 17981.7 -4.3-8.1
2019-Nov-20 04:00S 64°42' W 064°00'0 0.0 030 / 19982.8 -5.0-9.8
2019-Nov-20 03:00S 64°42' W 064°00'0 0.0 020 / 16983.9 -5.1-11.9
2019-Nov-20 02:00S 64°42' W 064°00'0 0.0 010 / 14984.4 -5.5-14.4
2019-Nov-20 01:00S 64°42' W 064°00'0 0.0 350 / 9984.7 -5.5-15.5
2019-Nov-20 00:00S 64°42' W 064°00'0 0.0 330 / 7985.2 -5.6-12.4
2019-Nov-19 23:00S 64°42' W 064°00'0 0.0 310 / 5985.3 -3.0-10.7
2019-Nov-19 22:00S 64°42' W 064°00'0 0.0 320 / 5985.4 -4.3-11.2
2019-Nov-19 21:00S 64°42' W 064°00'0 0.0 350 / 3985.6 -3.5-11.2
2019-Nov-19 20:00S 64°42' W 064°00'0 0.0 260 / 3985.8 -2.1-10.8
2019-Nov-19 19:00S 64°42' W 064°00'0 0.0 240 / 4985.9 -2.3-11.0
2019-Nov-19 18:00S 64°42' W 064°00'0 0.0 210 / 6985.7 -3.3-11.0
2019-Nov-19 17:00S 64°42' W 064°00'0 0.0 220 / 8985.4 -4.3-11.6
2019-Nov-19 16:00S 64°42' W 064°00'0 0.0 210 / 9984.9 -4.6-12.5
2019-Nov-19 15:00S 64°42' W 064°00'0 0.0 220 / 11984.3 -5.4-12.8
2019-Nov-19 14:00S 64°42' W 064°00'0 0.0 220 / 9983.8 -5.8-12.3
2019-Nov-19 13:00S 64°42' W 064°00'0 0.0 210 / 9983.3 -5.9-12.4
2019-Nov-19 12:00S 64°42' W 064°00'0 0.0 210 / 11982.7 -6.6-12.8
2019-Nov-19 11:00S 64°42' W 064°00'0 0.0 200 / 14982.1 -7.0-13.0
2019-Nov-19 10:00S 64°42' W 064°00'0 0.0 190 / 8981.9 -6.8-10.7
2019-Nov-19 09:00S 64°42' W 064°00'0 0.0 150 / 3982.1 -7.6-10.1
2019-Nov-19 08:00S 64°42' W 064°00'0 0.0 160 / 7982.4 -7.2-12.4
2019-Nov-19 07:00S 64°42' W 064°00'0 0.0 130 / 5983.1 -7.2-13.1
2019-Nov-19 06:00S 64°42' W 064°00'0 0.0 140 / 4983.7 -7.0-12.7
2019-Nov-19 05:00S 64°42' W 064°00'0 0.0 090 / 5984.6 -7.7-12.7
2019-Nov-19 04:00S 64°42' W 064°00'0 0.0 110 / 5985.4 -8.0-12.7
2019-Nov-19 03:00S 64°42' W 064°00'0 0.0 140 / 3986.0 -8.0-12.4
2019-Nov-19 02:00S 64°42' W 064°00'0 0.0 240 / 1986.2 -6.3-12.3
2019-Nov-19 01:00S 64°42' W 064°00'0 0.0 350 / 1986.2 -6.2-12.7
2019-Nov-19 00:00S 64°42' W 064°00'0 0.0 330 / 2986.2 -6.1-12.6
2019-Nov-18 23:00S 64°42' W 064°00'0 0.0 300 / 3986.2 -5.4-12.1
2019-Nov-18 22:00S 64°42' W 064°00'0 0.0 250 / 4986.2 -4.1-11.8
2019-Nov-18 21:00S 64°42' W 064°00'0 0.0 240 / 5985.9 -4.1-11.9
2019-Nov-18 20:00S 64°42' W 064°00'0 0.0 240 / 7985.2 -3.9-11.9
2019-Nov-18 19:00S 64°42' W 064°00'0 0.0 250 / 8984.3 -4.3-11.4
2019-Nov-18 18:00S 64°42' W 064°00'0 0.0 250 / 9983.2 -4.5-11.7
2019-Nov-18 17:00S 64°42' W 064°00'0 0.0 250 / 9982.4 -4.6-11.2
2019-Nov-18 16:00S 64°42' W 064°00'0 0.0 260 / 8982.1 -4.6-11.0
2019-Nov-18 15:00S 64°42' W 064°00'0 0.0 260 / 11981.5 -5.9-11.0
2019-Nov-18 14:00S 64°42' W 064°00'0 0.0 260 / 10980.8 -6.0-10.4
2019-Nov-18 13:00S 64°42' W 064°00'0 0.0 250 / 12980.0 -6.6-10.2
2019-Nov-18 12:00S 64°42' W 064°00'0 0.0 250 / 15979.1 -6.5-9.7
2019-Nov-18 11:00S 64°42' W 064°00'0 0.0 250 / 13978.4 -6.3-8.9
2019-Nov-18 10:00S 64°42' W 064°00'0 0.0 260 / 10977.8 -5.8-7.5
2019-Nov-18 09:00S 64°42' W 064°00'0 0.0 260 / 11976.8 -4.9-6.2
2019-Nov-18 08:00S 64°42' W 064°00'0 0.0 270 / 11975.4 -3.4-4.3
2019-Nov-18 07:00S 64°42' W 064°00'0 0.0 260 / 8974.2 -0.5-1.4
2019-Nov-18 06:00S 64°42' W 064°00'0 0.0 100 / 2974.1 -0.1-0.9
2019-Nov-18 05:00S 64°42' W 064°00'0 0.0 220 / 3974.1 0.1-0.2
2019-Nov-18 04:00S 64°42' W 064°00'0 0.0 240 / 3974.1 -0.1-0.4
2019-Nov-18 03:00S 64°42' W 064°00'0 0.0 300 / 2974.5 -0.0-0.3
2019-Nov-18 02:00S 64°42' W 064°00'0 0.0 330 / 3974.6 -0.5-0.9
2019-Nov-18 01:00S 64°42' W 064°00'0 0.0 310 / 4974.8 -0.0-0.6
2019-Nov-18 00:00S 64°42' W 064°00'0 0.0 230 / 2975.0 0.6-0.6
2019-Nov-17 23:00S 64°42' W 064°00'0 0.0 140 / 3975.3 0.6-0.3
2019-Nov-17 22:00S 64°42' W 064°00'0 0.0 130 / 3975.7 0.6-0.6
2019-Nov-17 21:00S 64°42' W 064°00'0 0.0 170 / 1976.0 1.7-0.3
2019-Nov-17 20:00S 64°42' W 064°00'0 0.0 160 / 3976.2 1.4-0.2
2019-Nov-17 19:00S 64°42' W 064°00'0 0.0 180 / 3976.2 3.0-0.2
2019-Nov-17 18:00S 64°42' W 064°00'0 0.0 200 / 2976.3 4.3-0.0
2019-Nov-17 17:00S 64°42' W 064°00'0 0.0 320 / 1976.4 3.3-0.0
2019-Nov-17 16:00S 64°42' W 064°00'0 0.0 320 / 6976.5 1.3-0.2
2019-Nov-17 15:00S 64°42' W 064°00'0 0.0 320 / 5976.6 1.1-0.2
2019-Nov-17 14:00S 64°42' W 064°00'0 0.0 120 / 4976.6 1.8-0.2
2019-Nov-17 13:00S 64°42' W 064°00'0 0.0 130 / 2976.9 1.5-0.0
2019-Nov-17 12:00S 64°42' W 064°00'0 0.0 200 / 2976.9 1.1-0.5
2019-Nov-17 11:00S 64°42' W 064°00'0 0.0 070 / 1976.7 0.8-0.9
2019-Nov-17 10:00S 64°42' W 064°00'0 0.0 010 / 1977.0 -0.1-1.3
2019-Nov-17 09:00S 64°42' W 064°00'0 0.0 090 / 1977.4 -0.9-2.1
2019-Nov-17 08:00S 64°42' W 064°00'0 0.0 150 / 2977.4 -0.6-1.9
2019-Nov-17 07:00S 64°42' W 064°00'0 0.0 330 / 3977.4 -0.9-2.0
2019-Nov-17 06:00S 64°42' W 064°00'0 0.0 040 / 2977.3 -1.0-1.9
2019-Nov-17 05:00S 64°42' W 064°00'0 0.0 320 / 2977.3 -1.5-2.6
2019-Nov-17 04:00S 64°42' W 064°00'0 0.0 310 / 4977.3 -1.8-2.6
2019-Nov-17 03:00S 64°42' W 064°00'0 0.0 310 / 3977.5 -1.4-2.6
2019-Nov-17 02:00S 64°42' W 064°00'0 0.0 130 / 5977.3 -1.2-2.0
2019-Nov-17 01:00S 64°42' W 064°00'0 0.0 120 / 6977.2 -1.7-2.6
2019-Nov-17 00:00S 64°42' W 064°00'0 0.0 130 / 3977.5 -1.9-3.4
2019-Nov-16 23:00S 64°42' W 064°00'0 0.0 160 / 3977.4 -1.4-3.3
2019-Nov-16 22:00S 64°42' W 064°00'0 0.0 150 / 3977.3 -1.7-3.5
2019-Nov-16 21:00S 64°42' W 064°00'0 0.0 180 / 2977.3 -0.1-3.2
2019-Nov-16 20:00S 64°42' W 064°00'0 0.0 200 / 3977.2 0.5-2.8
2019-Nov-16 19:00S 64°42' W 064°00'0 0.0 190 / 2977.0 0.6-2.6
2019-Nov-16 18:00S 64°42' W 064°00'0 0.0 190 / 3976.9 0.5-2.4
2019-Nov-16 17:00S 64°42' W 064°00'0 0.0 240 / 2976.8 0.3-2.6
2019-Nov-16 16:00S 64°42' W 064°00'0 0.0 240 / 2976.4 0.5-2.3
2019-Nov-16 15:00S 64°42' W 064°00'0 0.0 230 / 3976.1 -0.2-2.3
2019-Nov-16 14:00S 64°42' W 064°00'0 0.0 260 / 4975.9 -0.0-1.8
2019-Nov-16 13:00S 64°42' W 064°00'0 0.0 280 / 3975.5 -0.8-1.8
2019-Nov-16 12:00S 64°42' W 064°00'0 0.0 280 / 4975.1 -0.1-0.8
2019-Nov-16 11:00S 64°42' W 064°00'0 0.0 290 / 7974.6 -0.0-0.3
2019-Nov-16 10:00S 64°42' W 064°00'0 0.0 230 / 3974.2 -0.0-0.2
2019-Nov-16 09:00S 64°42' W 064°00'0 0.0 110 / 2973.7 -0.0-0.1
2019-Nov-16 08:00S 64°42' W 064°00'0 0.0 120 / 6973.3 -0.3-0.5
2019-Nov-16 07:00S 64°42' W 064°00'0 0.0 120 / 5973.3 -0.4-0.6
2019-Nov-16 06:00S 64°42' W 064°00'0 0.0 130 / 5973.1 -0.2-0.4
2019-Nov-16 05:00S 64°42' W 064°00'0 0.0 130 / 4972.6 0.1-0.1
2019-Nov-16 04:00S 64°42' W 064°00'0 0.0 150 / 2972.2 -0.0-0.3
2019-Nov-16 03:00S 64°42' W 064°00'0 0.0 290 / 1971.9 0.4-0.0
2019-Nov-16 02:00S 64°42' W 064°00'0 0.0 330 / 1971.6 0.7 0.4
2019-Nov-16 01:00S 64°42' W 064°00'0 0.0 070 / 1971.2 0.2-0.0
2019-Nov-16 00:00S 64°42' W 064°00'0 0.0 340 / 2971.0 0.1-0.0
2019-Nov-15 23:00S 64°42' W 064°00'0 0.0 320 / 5970.7 0.2-0.0
2019-Nov-15 22:00S 64°42' W 064°00'0 0.0 320 / 7970.5 0.5 0.1
2019-Nov-15 21:00S 64°42' W 064°00'0 0.0 330 / 6970.5 0.9 0.4
2019-Nov-15 20:00S 64°42' W 064°00'0 0.0 330 / 4970.6 1.0 0.3
2019-Nov-15 19:00S 64°42' W 064°00'0 0.0 340 / 2970.7 1.6 0.6
2019-Nov-15 18:00S 64°42' W 064°00'0 0.0 320 / 6970.7 1.0 0.1
2019-Nov-15 17:00S 64°42' W 064°00'0 0.0 210 / 3970.8 2.5 0.4
2019-Nov-15 16:00S 64°42' W 064°00'0 0.0 080 / 2971.0 2.5-0.0
2019-Nov-15 15:00S 64°42' W 064°00'0 0.0 130 / 5971.4 2.1-1.0
2019-Nov-15 14:00S 64°42' W 064°00'0 0.0 130 / 8972.0 1.4-1.3-1.7
2019-Nov-15 13:00S 64°42' W 064°00'0 0.0 140 / 10972.9 0.6-1.4
2019-Nov-15 12:00S 64°42' W 064°00'0 0.0 130 / 7974.0 2.3-0.9
2019-Nov-15 11:00S 64°42' W 064°00'0 0.0 190 / 5974.7 3.7-0.7
2019-Nov-15 10:00S 64°42' W 064°00'0 0.0 060 / 4975.7 3.0-1.2
2019-Nov-15 09:00S 64°42' W 064°00'0 0.0 070 / 7976.5 2.7-1.2
2019-Nov-15 08:00S 64°42' W 064°00'0 0.0 130 / 5977.7 1.1-2.0
2019-Nov-15 07:00S 64°42' W 064°00'0 0.0 080 / 10978.5 1.8-2.0
2019-Nov-15 06:00S 64°42' W 064°00'0 0.0 020 / 15979.4 1.7-1.6
2019-Nov-15 05:00S 64°42' W 064°00'0 0.0 080 / 10980.5 0.6-2.8
2019-Nov-15 04:00S 64°42' W 064°00'0 0.0 130 / 8981.7 -0.1-3.3
2019-Nov-15 03:00S 64°42' W 064°00'0 0.0 010 / 26981.0 0.9-3.0
2019-Nov-15 02:00S 64°42' W 064°00'0 0.0 020 / 29981.2 1.1-2.9
2019-Nov-15 01:00S 64°42' W 064°00'0 0.0 060 / 16983.0 -0.5-3.7
2019-Nov-15 00:00S 64°42' W 064°00'0 0.0 120 / 8984.5 -2.3-4.9
2019-Nov-14 23:00S 64°42' W 064°00'0 0.0 130 / 7985.5 -3.1-5.7
2019-Nov-14 22:00S 64°42' W 064°00'0 0.0 130 / 7986.5 -3.7-6.1
2019-Nov-14 21:00S 64°42' W 064°00'0 0.0 120 / 9987.6 -4.2-6.6
2019-Nov-14 20:00S 64°42' W 064°00'0 0.0 120 / 8988.6 -4.0-6.5
2019-Nov-14 19:00S 64°42' W 064°00'0 0.0 110 / 3989.4 -3.4-7.0
2019-Nov-14 18:00S 64°42' W 064°00'0 0.0 130 / 2989.8 -2.9-7.4
2019-Nov-14 17:00S 64°42' W 064°00'0 0.0 150 / 2990.0 -1.8-8.0
2019-Nov-14 16:00S 64°42' W 064°00'0 0.0 190 / 1990.1 -2.1-8.3
2019-Nov-14 15:00S 64°42' W 064°00'0 0.0 110 / 1990.4 -3.9-8.7
2019-Nov-14 14:00S 64°42' W 064°00'0 0.0 350 / 2990.9 -5.1-9.0
2019-Nov-14 13:00S 64°42' W 064°00'0 0.0 250 / 4990.8 -4.4-8.8
2019-Nov-14 12:00S 64°42' W 064°00'0 0.0 230 / 5990.6 -5.6-9.2
2019-Nov-14 11:00S 64°42' W 064°00'0 0.0 240 / 7990.4 -6.2-9.4
2019-Nov-14 10:00S 64°42' W 064°00'0 0.0 230 / 9990.0 -6.4-9.0
2019-Nov-14 09:00S 64°42' W 064°00'0 0.0 250 / 10989.5 -5.6-7.9
2019-Nov-14 08:00S 64°42' W 064°00'0 0.0 250 / 12989.0 -5.1-7.1
2019-Nov-14 07:00S 64°42' W 064°00'0 0.0 250 / 15988.3 -4.5-6.1
2019-Nov-14 06:00S 64°42' W 064°00'0 0.0 250 / 13987.5 -3.7-5.6
2019-Nov-14 05:00S 64°42' W 064°00'0 0.0 260 / 15986.5 -2.5-4.9
2019-Nov-14 04:00S 64°42' W 064°00'0 0.0 270 / 18985.1 -2.2-3.9
2019-Nov-14 03:00S 64°42' W 064°00'0 0.0 270 / 17984.5 -1.4-2.1
2019-Nov-14 02:00S 64°42' W 064°00'0 0.0 290 / 12983.9 -0.7-0.9
2019-Nov-14 01:00S 64°42' W 064°00'0 0.0 320 / 16982.9 -0.9-1.1
2019-Nov-14 00:00S 64°42' W 064°00'0 0.0 330 / 15982.7 -1.1-1.3
2019-Nov-13 23:00S 64°42' W 064°00'0 0.0 320 / 12982.7 -0.9-1.3
2019-Nov-13 22:00S 64°42' W 064°00'0 0.0 320 / 14982.6 -0.7-1.1
2019-Nov-13 21:00S 64°42' W 064°00'0 0.0 330 / 15982.1 -0.6-1.1
2019-Nov-13 20:00S 64°42' W 064°00'0 0.0 330 / 15981.5 -0.3-1.2
2019-Nov-13 19:00S 64°42' W 064°00'0 0.0 330 / 13981.0 0.1-1.1
2019-Nov-13 18:00S 64°42' W 064°00'0 0.0 330 / 12980.7 0.5-1.2
2019-Nov-13 17:00S 64°42' W 064°00'0 0.0 320 / 13980.2 0.7-1.4
2019-Nov-13 16:00S 64°42' W 064°00'0 0.0 260 / 5980.5 1.1-0.6
2019-Nov-13 15:00S 64°42' W 064°00'0 0.0 120 / 3980.3 0.3-0.6
2019-Nov-13 14:00S 64°42' W 064°00'6 3.0 120 / 6980.1 -0.1-1.0
2019-Nov-13 12:00S 64°48' W 064°00'5 5.1 210 / 2979.7 -0.1-0.9-1.7
2019-Nov-13 11:00S 64°48' W 063°48'5 5.1 130 / 3979.3 -0.0-1.1-1.4
2019-Nov-13 10:00S 64°48' W 063°36'8 7.9 040 / 4979.0 0.4-1.0-1.1
2019-Nov-13 09:00S 64°42' W 063°24'5 5.1 060 / 6978.9 0.3-1.2-0.7
2019-Nov-13 08:00S 64°42' W 063°12'10 9.8 070 / 10978.4 -0.0-0.8-0.6
2019-Nov-13 07:00S 64°36' W 062°54'8 7.7 040 / 12978.3 -0.7-0.9-0.7
2019-Nov-13 06:00S 64°36' W 062°36'8 7.9 080 / 12978.4 -0.2-0.8-0.7
2019-Nov-13 05:00S 64°30' W 062°24'0 0.0 100 / 12978.3 0.3-0.4-0.6
2019-Nov-13 04:00S 64°30' W 062°24'0 0.0 090 / 12978.3 0.4-0.4-0.6
2019-Nov-13 03:00S 64°30' W 062°24'3 2.6 090 / 15978.0 0.1-0.2-0.6
2019-Nov-13 02:00S 64°30' W 062°30'5 5.2 100 / 12978.2 -0.4-0.6-0.5
2019-Nov-13 01:00S 64°30' W 062°18'3 2.6 130 / 7978.5 -0.9-1.1-0.7
2019-Nov-13 00:00S 64°30' W 062°12'0 0.0 130 / 5978.7 -0.7-1.0-0.9
2019-Nov-12 23:00S 64°30' W 062°12'6 6.0 110 / 7978.9 -0.5-0.9-0.5
2019-Nov-12 22:00S 64°24' W 062°12'0 0.0 070 / 13979.1 -0.0-0.5-0.6
2019-Nov-12 21:00S 64°24' W 062°12'0 0.0 070 / 7979.9 -0.4-0.9-0.6
2019-Nov-12 20:00S 64°24' W 062°12'0 0.0 240 / 1980.7 -0.4-1.0-0.6
2019-Nov-12 19:00S 64°24' W 062°12'0 0.0 070 / 2981.6 -0.5-1.3-0.6
2019-Nov-12 18:00S 64°24' W 062°12'0 0.0 040 / 4982.8 -0.0-1.1-0.6
2019-Nov-12 17:00S 64°24' W 062°12'8 7.9 060 / 7984.0 -0.0-1.4-0.5
2019-Nov-12 16:00S 64°18' W 062°00'8 7.9 050 / 9985.3 0.3-1.6-0.3
2019-Nov-12 15:00S 64°12' W 061°48'1313.1 040 / 4986.3 0.6-1.2-0.3
2019-Nov-12 14:00S 64°00' W 061°36'7 6.6 020 / 5987.5 0.2-1.3-0.2
2019-Nov-12 13:00S 63°54' W 061°42'10 9.9 270 / 10988.1 -0.3-0.5-0.3
2019-Nov-12 12:00S 63°48' W 061°24'1212.0 270 / 17989.1 -0.8-0.8-0.4
2019-Nov-12 11:00S 63°36' W 061°24'6 6.0 270 / 17990.0 -0.9-0.9-0.4
2019-Nov-12 10:00S 63°30' W 061°24'7 6.6 270 / 17990.6 -0.8-0.8-0.5
2019-Nov-12 09:00S 63°24' W 061°30'7 6.6 270 / 19990.8 -0.7-0.9-0.8
2019-Nov-12 08:00S 63°18' W 061°36'1212.3 260 / 20991.2 -0.6-0.8-0.9
2019-Nov-12 07:00S 63°06' W 061°42'1313.2 250 / 24991.4 -0.3-0.9-0.8
2019-Nov-12 06:00S 62°54' W 061°54'7 6.6 250 / 22991.3 0.2-0.5-0.8
2019-Nov-12 05:00S 62°48' W 062°00'1313.2 260 / 21992.4 -0.3-0.8-0.8
2019-Nov-12 04:00S 62°36' W 062°12'7 6.6 260 / 22992.5 -0.2-0.7-0.9
2019-Nov-12 03:00S 62°30' W 062°18'1212.3 260 / 26992.4 -0.1-0.6-1.0
2019-Nov-12 02:00S 62°18' W 062°24'7 6.6 260 / 26992.7 -0.0-0.5-1.0
2019-Nov-12 01:00S 62°12' W 062°30'1212.3 260 / 29992.8 0.3-0.3-1.0
2019-Nov-12 00:00S 62°00' W 062°36'1212.0 260 / 30992.7 0.6-0.2-0.9
2019-Nov-11 23:00S 61°48' W 062°36'   260 / 30992.8 0.8-0.2-0.8
Track history (hours):
 
Tides and Currents Weather Stations Pressure Air Temp Water Temp Dewpoint Dewpoint Depression Visibility Wind Speed Wind Dir Waves Ship Positions

Oceanographic research ship Laurence M. Gould (USA)

Detailed information on ship capabilities available from University of Delaware's Ocean Information Center.

Owner: Offshore Service Vessels LLC, Cut Off, LA. More information available from US FCC via Universal Licensing System and Coast Guard Vessel Documentation Center.

Last reported at 2019-Nov-20 09:00 UTC. Time now 2019-Nov-20 09:36 UTC.
Position S 64°42' W 064°00'.

Type: Ship. MMSI: 368138000.

Wind from 340 at 15 knots

Barometer 977.8 mb
Air temperature -1.7 ° C
Dewpoint -5.0 ° C

Date/timePositionNaut miles runAvg speedWind from/ knotsBaromVisibWave heightAir tempDewpointWater temp
2019-Nov-20 09:00S 64°42' W 064°00'0 0.0 340 / 15977.8 -1.7-5.0
2019-Nov-20 08:00S 64°42' W 064°00'0 0.0 350 / 24977.1 -2.1-4.6
2019-Nov-20 07:00S 64°42' W 064°00'0 0.0 010 / 29977.6 -3.1-6.2
2019-Nov-20 06:00S 64°42' W 064°00'0 0.0 020 / 32978.8 -3.9-6.8
2019-Nov-20 05:00S 64°42' W 064°00'0 0.0 030 / 17981.7 -4.3-8.1
2019-Nov-20 04:00S 64°42' W 064°00'0 0.0 030 / 19982.8 -5.0-9.8
2019-Nov-20 03:00S 64°42' W 064°00'0 0.0 020 / 16983.9 -5.1-11.9
2019-Nov-20 02:00S 64°42' W 064°00'0 0.0 010 / 14984.4 -5.5-14.4
2019-Nov-20 01:00S 64°42' W 064°00'0 0.0 350 / 9984.7 -5.5-15.5
2019-Nov-20 00:00S 64°42' W 064°00'0 0.0 330 / 7985.2 -5.6-12.4
2019-Nov-19 23:00S 64°42' W 064°00'0 0.0 310 / 5985.3 -3.0-10.7
2019-Nov-19 22:00S 64°42' W 064°00'0 0.0 320 / 5985.4 -4.3-11.2
2019-Nov-19 21:00S 64°42' W 064°00'0 0.0 350 / 3985.6 -3.5-11.2
2019-Nov-19 20:00S 64°42' W 064°00'0 0.0 260 / 3985.8 -2.1-10.8
2019-Nov-19 19:00S 64°42' W 064°00'0 0.0 240 / 4985.9 -2.3-11.0
2019-Nov-19 18:00S 64°42' W 064°00'0 0.0 210 / 6985.7 -3.3-11.0
2019-Nov-19 17:00S 64°42' W 064°00'0 0.0 220 / 8985.4 -4.3-11.6
2019-Nov-19 16:00S 64°42' W 064°00'0 0.0 210 / 9984.9 -4.6-12.5
2019-Nov-19 15:00S 64°42' W 064°00'0 0.0 220 / 11984.3 -5.4-12.8
2019-Nov-19 14:00S 64°42' W 064°00'0 0.0 220 / 9983.8 -5.8-12.3
2019-Nov-19 13:00S 64°42' W 064°00'0 0.0 210 / 9983.3 -5.9-12.4
2019-Nov-19 12:00S 64°42' W 064°00'0 0.0 210 / 11982.7 -6.6-12.8
2019-Nov-19 11:00S 64°42' W 064°00'0 0.0 200 / 14982.1 -7.0-13.0
2019-Nov-19 10:00S 64°42' W 064°00'0 0.0 190 / 8981.9 -6.8-10.7
2019-Nov-19 09:00S 64°42' W 064°00'0 0.0 150 / 3982.1 -7.6-10.1
2019-Nov-19 08:00S 64°42' W 064°00'0 0.0 160 / 7982.4 -7.2-12.4
2019-Nov-19 07:00S 64°42' W 064°00'0 0.0 130 / 5983.1 -7.2-13.1
2019-Nov-19 06:00S 64°42' W 064°00'0 0.0 140 / 4983.7 -7.0-12.7
2019-Nov-19 05:00S 64°42' W 064°00'0 0.0 090 / 5984.6 -7.7-12.7
2019-Nov-19 04:00S 64°42' W 064°00'0 0.0 110 / 5985.4 -8.0-12.7
2019-Nov-19 03:00S 64°42' W 064°00'0 0.0 140 / 3986.0 -8.0-12.4
2019-Nov-19 02:00S 64°42' W 064°00'0 0.0 240 / 1986.2 -6.3-12.3
2019-Nov-19 01:00S 64°42' W 064°00'0 0.0 350 / 1986.2 -6.2-12.7
2019-Nov-19 00:00S 64°42' W 064°00'0 0.0 330 / 2986.2 -6.1-12.6
2019-Nov-18 23:00S 64°42' W 064°00'0 0.0 300 / 3986.2 -5.4-12.1
2019-Nov-18 22:00S 64°42' W 064°00'0 0.0 250 / 4986.2 -4.1-11.8
2019-Nov-18 21:00S 64°42' W 064°00'0 0.0 240 / 5985.9 -4.1-11.9
2019-Nov-18 20:00S 64°42' W 064°00'0 0.0 240 / 7985.2 -3.9-11.9
2019-Nov-18 19:00S 64°42' W 064°00'0 0.0 250 / 8984.3 -4.3-11.4
2019-Nov-18 18:00S 64°42' W 064°00'0 0.0 250 / 9983.2 -4.5-11.7
2019-Nov-18 17:00S 64°42' W 064°00'0 0.0 250 / 9982.4 -4.6-11.2
2019-Nov-18 16:00S 64°42' W 064°00'0 0.0 260 / 8982.1 -4.6-11.0
2019-Nov-18 15:00S 64°42' W 064°00'0 0.0 260 / 11981.5 -5.9-11.0
2019-Nov-18 14:00S 64°42' W 064°00'0 0.0 260 / 10980.8 -6.0-10.4
2019-Nov-18 13:00S 64°42' W 064°00'0 0.0 250 / 12980.0 -6.6-10.2
2019-Nov-18 12:00S 64°42' W 064°00'0 0.0 250 / 15979.1 -6.5-9.7
2019-Nov-18 11:00S 64°42' W 064°00'0 0.0 250 / 13978.4 -6.3-8.9
2019-Nov-18 10:00S 64°42' W 064°00'0 0.0 260 / 10977.8 -5.8-7.5
2019-Nov-18 09:00S 64°42' W 064°00'0 0.0 260 / 11976.8 -4.9-6.2
2019-Nov-18 08:00S 64°42' W 064°00'0 0.0 270 / 11975.4 -3.4-4.3
2019-Nov-18 07:00S 64°42' W 064°00'0 0.0 260 / 8974.2 -0.5-1.4
2019-Nov-18 06:00S 64°42' W 064°00'0 0.0 100 / 2974.1 -0.1-0.9
2019-Nov-18 05:00S 64°42' W 064°00'0 0.0 220 / 3974.1 0.1-0.2
2019-Nov-18 04:00S 64°42' W 064°00'0 0.0 240 / 3974.1 -0.1-0.4
2019-Nov-18 03:00S 64°42' W 064°00'0 0.0 300 / 2974.5 -0.0-0.3
2019-Nov-18 02:00S 64°42' W 064°00'0 0.0 330 / 3974.6 -0.5-0.9
2019-Nov-18 01:00S 64°42' W 064°00'0 0.0 310 / 4974.8 -0.0-0.6
2019-Nov-18 00:00S 64°42' W 064°00'0 0.0 230 / 2975.0 0.6-0.6
2019-Nov-17 23:00S 64°42' W 064°00'0 0.0 140 / 3975.3 0.6-0.3
2019-Nov-17 22:00S 64°42' W 064°00'0 0.0 130 / 3975.7 0.6-0.6
2019-Nov-17 21:00S 64°42' W 064°00'0 0.0 170 / 1976.0 1.7-0.3
2019-Nov-17 20:00S 64°42' W 064°00'0 0.0 160 / 3976.2 1.4-0.2
2019-Nov-17 19:00S 64°42' W 064°00'0 0.0 180 / 3976.2 3.0-0.2
2019-Nov-17 18:00S 64°42' W 064°00'0 0.0 200 / 2976.3 4.3-0.0
2019-Nov-17 17:00S 64°42' W 064°00'0 0.0 320 / 1976.4 3.3-0.0
2019-Nov-17 16:00S 64°42' W 064°00'0 0.0 320 / 6976.5 1.3-0.2
2019-Nov-17 15:00S 64°42' W 064°00'0 0.0 320 / 5976.6 1.1-0.2
2019-Nov-17 14:00S 64°42' W 064°00'0 0.0 120 / 4976.6 1.8-0.2
2019-Nov-17 13:00S 64°42' W 064°00'0 0.0 130 / 2976.9 1.5-0.0
2019-Nov-17 12:00S 64°42' W 064°00'0 0.0 200 / 2976.9 1.1-0.5
2019-Nov-17 11:00S 64°42' W 064°00'0 0.0 070 / 1976.7 0.8-0.9
2019-Nov-17 10:00S 64°42' W 064°00'0 0.0 010 / 1977.0 -0.1-1.3
2019-Nov-17 09:00S 64°42' W 064°00'0 0.0 090 / 1977.4 -0.9-2.1
2019-Nov-17 08:00S 64°42' W 064°00'0 0.0 150 / 2977.4 -0.6-1.9
2019-Nov-17 07:00S 64°42' W 064°00'0 0.0 330 / 3977.4 -0.9-2.0
2019-Nov-17 06:00S 64°42' W 064°00'0 0.0 040 / 2977.3 -1.0-1.9
2019-Nov-17 05:00S 64°42' W 064°00'0 0.0 320 / 2977.3 -1.5-2.6
2019-Nov-17 04:00S 64°42' W 064°00'0 0.0 310 / 4977.3 -1.8-2.6
2019-Nov-17 03:00S 64°42' W 064°00'0 0.0 310 / 3977.5 -1.4-2.6
2019-Nov-17 02:00S 64°42' W 064°00'0 0.0 130 / 5977.3 -1.2-2.0
2019-Nov-17 01:00S 64°42' W 064°00'0 0.0 120 / 6977.2 -1.7-2.6
2019-Nov-17 00:00S 64°42' W 064°00'0 0.0 130 / 3977.5 -1.9-3.4
2019-Nov-16 23:00S 64°42' W 064°00'0 0.0 160 / 3977.4 -1.4-3.3
2019-Nov-16 22:00S 64°42' W 064°00'0 0.0 150 / 3977.3 -1.7-3.5
2019-Nov-16 21:00S 64°42' W 064°00'0 0.0 180 / 2977.3 -0.1-3.2
2019-Nov-16 20:00S 64°42' W 064°00'0 0.0 200 / 3977.2 0.5-2.8
2019-Nov-16 19:00S 64°42' W 064°00'0 0.0 190 / 2977.0 0.6-2.6
2019-Nov-16 18:00S 64°42' W 064°00'0 0.0 190 / 3976.9 0.5-2.4
2019-Nov-16 17:00S 64°42' W 064°00'0 0.0 240 / 2976.8 0.3-2.6
2019-Nov-16 16:00S 64°42' W 064°00'0 0.0 240 / 2976.4 0.5-2.3
2019-Nov-16 15:00S 64°42' W 064°00'0 0.0 230 / 3976.1 -0.2-2.3
2019-Nov-16 14:00S 64°42' W 064°00'0 0.0 260 / 4975.9 -0.0-1.8
2019-Nov-16 13:00S 64°42' W 064°00'0 0.0 280 / 3975.5 -0.8-1.8
2019-Nov-16 12:00S 64°42' W 064°00'0 0.0 280 / 4975.1 -0.1-0.8
2019-Nov-16 11:00S 64°42' W 064°00'0 0.0 290 / 7974.6 -0.0-0.3
2019-Nov-16 10:00S 64°42' W 064°00'0 0.0 230 / 3974.2 -0.0-0.2
2019-Nov-16 09:00S 64°42' W 064°00'0 0.0 110 / 2973.7 -0.0-0.1
2019-Nov-16 08:00S 64°42' W 064°00'0 0.0 120 / 6973.3 -0.3-0.5
2019-Nov-16 07:00S 64°42' W 064°00'0 0.0 120 / 5973.3 -0.4-0.6
2019-Nov-16 06:00S 64°42' W 064°00'0 0.0 130 / 5973.1 -0.2-0.4
2019-Nov-16 05:00S 64°42' W 064°00'0 0.0 130 / 4972.6 0.1-0.1
2019-Nov-16 04:00S 64°42' W 064°00'0 0.0 150 / 2972.2 -0.0-0.3
2019-Nov-16 03:00S 64°42' W 064°00'0 0.0 290 / 1971.9 0.4-0.0
2019-Nov-16 02:00S 64°42' W 064°00'0 0.0 330 / 1971.6 0.7 0.4
2019-Nov-16 01:00S 64°42' W 064°00'0 0.0 070 / 1971.2 0.2-0.0
2019-Nov-16 00:00S 64°42' W 064°00'0 0.0 340 / 2971.0 0.1-0.0
2019-Nov-15 23:00S 64°42' W 064°00'0 0.0 320 / 5970.7 0.2-0.0
2019-Nov-15 22:00S 64°42' W 064°00'0 0.0 320 / 7970.5 0.5 0.1
2019-Nov-15 21:00S 64°42' W 064°00'0 0.0 330 / 6970.5 0.9 0.4
2019-Nov-15 20:00S 64°42' W 064°00'0 0.0 330 / 4970.6 1.0 0.3
2019-Nov-15 19:00S 64°42' W 064°00'0 0.0 340 / 2970.7 1.6 0.6
2019-Nov-15 18:00S 64°42' W 064°00'0 0.0 320 / 6970.7 1.0 0.1
2019-Nov-15 17:00S 64°42' W 064°00'0 0.0 210 / 3970.8 2.5 0.4
2019-Nov-15 16:00S 64°42' W 064°00'0 0.0 080 / 2971.0 2.5-0.0
2019-Nov-15 15:00S 64°42' W 064°00'0 0.0 130 / 5971.4 2.1-1.0
2019-Nov-15 14:00S 64°42' W 064°00'0 0.0 130 / 8972.0 1.4-1.3-1.7
2019-Nov-15 13:00S 64°42' W 064°00'0 0.0 140 / 10972.9 0.6-1.4
2019-Nov-15 12:00S 64°42' W 064°00'0 0.0 130 / 7974.0 2.3-0.9
2019-Nov-15 11:00S 64°42' W 064°00'0 0.0 190 / 5974.7 3.7-0.7
2019-Nov-15 10:00S 64°42' W 064°00'0 0.0 060 / 4975.7 3.0-1.2
2019-Nov-15 09:00S 64°42' W 064°00'0 0.0 070 / 7976.5 2.7-1.2
2019-Nov-15 08:00S 64°42' W 064°00'0 0.0 130 / 5977.7 1.1-2.0
2019-Nov-15 07:00S 64°42' W 064°00'0 0.0 080 / 10978.5 1.8-2.0
2019-Nov-15 06:00S 64°42' W 064°00'0 0.0 020 / 15979.4 1.7-1.6
2019-Nov-15 05:00S 64°42' W 064°00'0 0.0 080 / 10980.5 0.6-2.8
2019-Nov-15 04:00S 64°42' W 064°00'0 0.0 130 / 8981.7 -0.1-3.3
2019-Nov-15 03:00S 64°42' W 064°00'0 0.0 010 / 26981.0 0.9-3.0
2019-Nov-15 02:00S 64°42' W 064°00'0 0.0 020 / 29981.2 1.1-2.9
2019-Nov-15 01:00S 64°42' W 064°00'0 0.0 060 / 16983.0 -0.5-3.7
2019-Nov-15 00:00S 64°42' W 064°00'0 0.0 120 / 8984.5 -2.3-4.9
2019-Nov-14 23:00S 64°42' W 064°00'0 0.0 130 / 7985.5 -3.1-5.7
2019-Nov-14 22:00S 64°42' W 064°00'0 0.0 130 / 7986.5 -3.7-6.1
2019-Nov-14 21:00S 64°42' W 064°00'0 0.0 120 / 9987.6 -4.2-6.6
2019-Nov-14 20:00S 64°42' W 064°00'0 0.0 120 / 8988.6 -4.0-6.5
2019-Nov-14 19:00S 64°42' W 064°00'0 0.0 110 / 3989.4 -3.4-7.0
2019-Nov-14 18:00S 64°42' W 064°00'0 0.0 130 / 2989.8 -2.9-7.4
2019-Nov-14 17:00S 64°42' W 064°00'0 0.0 150 / 2990.0 -1.8-8.0
2019-Nov-14 16:00S 64°42' W 064°00'0 0.0 190 / 1990.1 -2.1-8.3
2019-Nov-14 15:00S 64°42' W 064°00'0 0.0 110 / 1990.4 -3.9-8.7
2019-Nov-14 14:00S 64°42' W 064°00'0 0.0 350 / 2990.9 -5.1-9.0
2019-Nov-14 13:00S 64°42' W 064°00'0 0.0 250 / 4990.8 -4.4-8.8
2019-Nov-14 12:00S 64°42' W 064°00'0 0.0 230 / 5990.6 -5.6-9.2
2019-Nov-14 11:00S 64°42' W 064°00'0 0.0 240 / 7990.4 -6.2-9.4
2019-Nov-14 10:00S 64°42' W 064°00'0 0.0 230 / 9990.0 -6.4-9.0
2019-Nov-14 09:00S 64°42' W 064°00'0 0.0 250 / 10989.5 -5.6-7.9
2019-Nov-14 08:00S 64°42' W 064°00'0 0.0 250 / 12989.0 -5.1-7.1
2019-Nov-14 07:00S 64°42' W 064°00'0 0.0 250 / 15988.3 -4.5-6.1
2019-Nov-14 06:00S 64°42' W 064°00'0 0.0 250 / 13987.5 -3.7-5.6
2019-Nov-14 05:00S 64°42' W 064°00'0 0.0 260 / 15986.5 -2.5-4.9
2019-Nov-14 04:00S 64°42' W 064°00'0 0.0 270 / 18985.1 -2.2-3.9
2019-Nov-14 03:00S 64°42' W 064°00'0 0.0 270 / 17984.5 -1.4-2.1
2019-Nov-14 02:00S 64°42' W 064°00'0 0.0 290 / 12983.9 -0.7-0.9
2019-Nov-14 01:00S 64°42' W 064°00'0 0.0 320 / 16982.9 -0.9-1.1
2019-Nov-14 00:00S 64°42' W 064°00'0 0.0 330 / 15982.7 -1.1-1.3
2019-Nov-13 23:00S 64°42' W 064°00'0 0.0 320 / 12982.7 -0.9-1.3
2019-Nov-13 22:00S 64°42' W 064°00'0 0.0 320 / 14982.6 -0.7-1.1
2019-Nov-13 21:00S 64°42' W 064°00'0 0.0 330 / 15982.1 -0.6-1.1
2019-Nov-13 20:00S 64°42' W 064°00'0 0.0 330 / 15981.5 -0.3-1.2
2019-Nov-13 19:00S 64°42' W 064°00'0 0.0 330 / 13981.0 0.1-1.1
2019-Nov-13 18:00S 64°42' W 064°00'0 0.0 330 / 12980.7 0.5-1.2
2019-Nov-13 17:00S 64°42' W 064°00'0 0.0 320 / 13980.2 0.7-1.4
2019-Nov-13 16:00S 64°42' W 064°00'0 0.0 260 / 5980.5 1.1-0.6
2019-Nov-13 15:00S 64°42' W 064°00'0 0.0 120 / 3980.3 0.3-0.6
2019-Nov-13 14:00S 64°42' W 064°00'6 3.0 120 / 6980.1 -0.1-1.0
2019-Nov-13 12:00S 64°48' W 064°00'5 5.1 210 / 2979.7 -0.1-0.9-1.7
2019-Nov-13 11:00S 64°48' W 063°48'5 5.1 130 / 3979.3 -0.0-1.1-1.4
2019-Nov-13 10:00S 64°48' W 063°36'8 7.9 040 / 4979.0 0.4-1.0-1.1
2019-Nov-13 09:00S 64°42' W 063°24'5 5.1 060 / 6978.9 0.3-1.2-0.7
2019-Nov-13 08:00S 64°42' W 063°12'10 9.8 070 / 10978.4 -0.0-0.8-0.6
2019-Nov-13 07:00S 64°36' W 062°54'8 7.7 040 / 12978.3 -0.7-0.9-0.7
2019-Nov-13 06:00S 64°36' W 062°36'8 7.9 080 / 12978.4 -0.2-0.8-0.7
2019-Nov-13 05:00S 64°30' W 062°24'0 0.0 100 / 12978.3 0.3-0.4-0.6
2019-Nov-13 04:00S 64°30' W 062°24'0 0.0 090 / 12978.3 0.4-0.4-0.6
2019-Nov-13 03:00S 64°30' W 062°24'3 2.6 090 / 15978.0 0.1-0.2-0.6
2019-Nov-13 02:00S 64°30' W 062°30'5 5.2 100 / 12978.2 -0.4-0.6-0.5
2019-Nov-13 01:00S 64°30' W 062°18'3 2.6 130 / 7978.5 -0.9-1.1-0.7
2019-Nov-13 00:00S 64°30' W 062°12'0 0.0 130 / 5978.7 -0.7-1.0-0.9
2019-Nov-12 23:00S 64°30' W 062°12'6 6.0 110 / 7978.9 -0.5-0.9-0.5
2019-Nov-12 22:00S 64°24' W 062°12'0 0.0 070 / 13979.1 -0.0-0.5-0.6
2019-Nov-12 21:00S 64°24' W 062°12'0 0.0 070 / 7979.9 -0.4-0.9-0.6
2019-Nov-12 20:00S 64°24' W 062°12'0 0.0 240 / 1980.7 -0.4-1.0-0.6
2019-Nov-12 19:00S 64°24' W 062°12'0 0.0 070 / 2981.6 -0.5-1.3-0.6
2019-Nov-12 18:00S 64°24' W 062°12'0 0.0 040 / 4982.8 -0.0-1.1-0.6
2019-Nov-12 17:00S 64°24' W 062°12'8 7.9 060 / 7984.0 -0.0-1.4-0.5
2019-Nov-12 16:00S 64°18' W 062°00'8 7.9 050 / 9985.3 0.3-1.6-0.3
2019-Nov-12 15:00S 64°12' W 061°48'1313.1 040 / 4986.3 0.6-1.2-0.3
2019-Nov-12 14:00S 64°00' W 061°36'7 6.6 020 / 5987.5 0.2-1.3-0.2
2019-Nov-12 13:00S 63°54' W 061°42'10 9.9 270 / 10988.1 -0.3-0.5-0.3
2019-Nov-12 12:00S 63°48' W 061°24'1212.0 270 / 17989.1 -0.8-0.8-0.4
2019-Nov-12 11:00S 63°36' W 061°24'6 6.0 270 / 17990.0 -0.9-0.9-0.4
2019-Nov-12 10:00S 63°30' W 061°24'7 6.6 270 / 17990.6 -0.8-0.8-0.5
2019-Nov-12 09:00S 63°24' W 061°30'7 6.6 270 / 19990.8 -0.7-0.9-0.8
2019-Nov-12 08:00S 63°18' W 061°36'1212.3 260 / 20991.2 -0.6-0.8-0.9
2019-Nov-12 07:00S 63°06' W 061°42'1313.2 250 / 24991.4 -0.3-0.9-0.8
2019-Nov-12 06:00S 62°54' W 061°54'7 6.6 250 / 22991.3 0.2-0.5-0.8
2019-Nov-12 05:00S 62°48' W 062°00'1313.2 260 / 21992.4 -0.3-0.8-0.8
2019-Nov-12 04:00S 62°36' W 062°12'7 6.6 260 / 22992.5 -0.2-0.7-0.9
2019-Nov-12 03:00S 62°30' W 062°18'1212.3 260 / 26992.4 -0.1-0.6-1.0
2019-Nov-12 02:00S 62°18' W 062°24'7 6.6 260 / 26992.7 -0.0-0.5-1.0
2019-Nov-12 01:00S 62°12' W 062°30'1212.3 260 / 29992.8 0.3-0.3-1.0
2019-Nov-12 00:00S 62°00' W 062°36'1212.0 260 / 30992.7 0.6-0.2-0.9
2019-Nov-11 23:00S 61°48' W 062°36'   260 / 30992.8 0.8-0.2-0.8

Dump ship's entire track history